sensor_id;sensor_type;location;lat;lon;timestamp;P1;durP1;ratioP1;P2;durP2;ratioP2
54959;SDS011;40860;51.710;8.736;2023-03-16T00:00:30;4.97;;;2.88;;
54959;SDS011;40860;51.710;8.736;2023-03-16T00:04:33;5.22;;;3.10;;
54959;SDS011;40860;51.710;8.736;2023-03-16T00:08:37;3.67;;;2.47;;
54959;SDS011;40860;51.710;8.736;2023-03-16T00:12:41;7.43;;;3.10;;
54959;SDS011;40860;51.710;8.736;2023-03-16T00:16:45;4.85;;;3.00;;
54959;SDS011;40860;51.710;8.736;2023-03-16T00:20:51;5.53;;;3.60;;
54959;SDS011;40860;51.710;8.736;2023-03-16T00:24:55;5.90;;;3.08;;
54959;SDS011;40860;51.710;8.736;2023-03-16T00:29:00;6.40;;;3.75;;
54959;SDS011;40860;51.710;8.736;2023-03-16T00:33:03;4.93;;;3.55;;
54959;SDS011;40860;51.710;8.736;2023-03-16T00:37:05;6.13;;;3.45;;
54959;SDS011;40860;51.710;8.736;2023-03-16T00:41:08;5.95;;;3.25;;
54959;SDS011;40860;51.710;8.736;2023-03-16T00:45:15;8.13;;;3.20;;
54959;SDS011;40860;51.710;8.736;2023-03-16T00:49:18;4.25;;;2.70;;
54959;SDS011;40860;51.710;8.736;2023-03-16T00:53:22;4.72;;;2.50;;
54959;SDS011;40860;51.710;8.736;2023-03-16T00:57:25;9.13;;;3.00;;
54959;SDS011;40860;51.710;8.736;2023-03-16T01:01:32;5.72;;;2.85;;
54959;SDS011;40860;51.710;8.736;2023-03-16T01:05:38;8.32;;;2.90;;
54959;SDS011;40860;51.710;8.736;2023-03-16T01:09:42;4.35;;;2.53;;
54959;SDS011;40860;51.710;8.736;2023-03-16T01:13:45;5.40;;;2.67;;
54959;SDS011;40860;51.710;8.736;2023-03-16T01:17:50;3.08;;;1.98;;
54959;SDS011;40860;51.710;8.736;2023-03-16T01:21:53;5.05;;;2.17;;
54959;SDS011;40860;51.710;8.736;2023-03-16T01:25:55;4.15;;;1.95;;
54959;SDS011;40860;51.710;8.736;2023-03-16T01:29:59;3.58;;;2.08;;
54959;SDS011;40860;51.710;8.736;2023-03-16T01:34:04;4.88;;;2.22;;
54959;SDS011;40860;51.710;8.736;2023-03-16T01:38:07;6.22;;;2.30;;
54959;SDS011;40860;51.710;8.736;2023-03-16T01:42:12;4.13;;;2.25;;
54959;SDS011;40860;51.710;8.736;2023-03-16T01:46:16;4.63;;;2.28;;
54959;SDS011;40860;51.710;8.736;2023-03-16T01:50:24;5.85;;;2.35;;
54959;SDS011;40860;51.710;8.736;2023-03-16T01:54:28;3.08;;;2.08;;
54959;SDS011;40860;51.710;8.736;2023-03-16T01:58:34;5.28;;;2.30;;
54959;SDS011;40860;51.710;8.736;2023-03-16T02:02:38;3.95;;;2.08;;
54959;SDS011;40860;51.710;8.736;2023-03-16T02:06:53;4.65;;;2.60;;
54959;SDS011;40860;51.710;8.736;2023-03-16T02:10:58;5.47;;;2.50;;
54959;SDS011;40860;51.710;8.736;2023-03-16T02:15:14;3.80;;;2.35;;
54959;SDS011;40860;51.710;8.736;2023-03-16T02:19:19;5.28;;;2.45;;
54959;SDS011;40860;51.710;8.736;2023-03-16T02:23:34;4.43;;;2.47;;
54959;SDS011;40860;51.710;8.736;2023-03-16T02:27:38;4.70;;;2.50;;
54959;SDS011;40860;51.710;8.736;2023-03-16T02:31:49;5.40;;;2.75;;
54959;SDS011;40860;51.710;8.736;2023-03-16T02:35:52;7.82;;;2.33;;
54959;SDS011;40860;51.710;8.736;2023-03-16T02:39:55;4.57;;;2.20;;
54959;SDS011;40860;51.710;8.736;2023-03-16T02:43:59;4.53;;;2.40;;
54959;SDS011;40860;51.710;8.736;2023-03-16T02:48:12;4.55;;;2.47;;
54959;SDS011;40860;51.710;8.736;2023-03-16T02:52:19;3.75;;;2.65;;
54959;SDS011;40860;51.710;8.736;2023-03-16T02:56:22;4.70;;;2.65;;
54959;SDS011;40860;51.710;8.736;2023-03-16T03:00:24;6.47;;;2.65;;
54959;SDS011;40860;51.710;8.736;2023-03-16T03:04:29;5.80;;;2.60;;
54959;SDS011;40860;51.710;8.736;2023-03-16T03:08:33;5.00;;;2.72;;
54959;SDS011;40860;51.710;8.736;2023-03-16T03:12:36;7.70;;;3.30;;
54959;SDS011;40860;51.710;8.736;2023-03-16T03:16:41;4.85;;;3.05;;
54959;SDS011;40860;51.710;8.736;2023-03-16T03:20:50;6.25;;;3.15;;
54959;SDS011;40860;51.710;8.736;2023-03-16T03:24:53;4.70;;;3.08;;
54959;SDS011;40860;51.710;8.736;2023-03-16T03:28:55;4.75;;;2.90;;
54959;SDS011;40860;51.710;8.736;2023-03-16T03:32:58;5.13;;;2.70;;
54959;SDS011;40860;51.710;8.736;2023-03-16T03:37:04;6.72;;;2.92;;
54959;SDS011;40860;51.710;8.736;2023-03-16T03:41:07;5.20;;;2.92;;
54959;SDS011;40860;51.710;8.736;2023-03-16T03:45:12;6.20;;;3.00;;
54959;SDS011;40860;51.710;8.736;2023-03-16T03:49:16;8.50;;;2.60;;
54959;SDS011;40860;51.710;8.736;2023-03-16T03:53:23;5.68;;;2.80;;
54959;SDS011;40860;51.710;8.736;2023-03-16T03:57:41;4.45;;;3.05;;
54959;SDS011;40860;51.710;8.736;2023-03-16T04:01:44;4.70;;;2.95;;
54959;SDS011;40860;51.710;8.736;2023-03-16T04:05:47;8.43;;;3.38;;
54959;SDS011;40860;51.710;8.736;2023-03-16T04:09:51;4.90;;;3.00;;
54959;SDS011;40860;51.710;8.736;2023-03-16T04:14:00;5.28;;;2.60;;
54959;SDS011;40860;51.710;8.736;2023-03-16T04:18:04;4.78;;;2.75;;
54959;SDS011;40860;51.710;8.736;2023-03-16T04:22:07;4.68;;;2.80;;
54959;SDS011;40860;51.710;8.736;2023-03-16T04:26:12;5.05;;;3.15;;
54959;SDS011;40860;51.710;8.736;2023-03-16T04:30:17;9.38;;;3.08;;
54959;SDS011;40860;51.710;8.736;2023-03-16T04:34:25;8.10;;;3.17;;
54959;SDS011;40860;51.710;8.736;2023-03-16T04:38:35;5.05;;;2.90;;
54959;SDS011;40860;51.710;8.736;2023-03-16T04:42:39;4.10;;;2.70;;
54959;SDS011;40860;51.710;8.736;2023-03-16T04:46:46;6.43;;;3.72;;
54959;SDS011;40860;51.710;8.736;2023-03-16T04:50:51;6.78;;;3.10;;
54959;SDS011;40860;51.710;8.736;2023-03-16T04:54:54;6.32;;;3.45;;
54959;SDS011;40860;51.710;8.736;2023-03-16T04:58:59;5.10;;;3.70;;
54959;SDS011;40860;51.710;8.736;2023-03-16T05:03:07;4.07;;;3.15;;
54959;SDS011;40860;51.710;8.736;2023-03-16T05:07:11;9.35;;;3.47;;
54959;SDS011;40860;51.710;8.736;2023-03-16T05:11:18;9.30;;;3.28;;
54959;SDS011;40860;51.710;8.736;2023-03-16T05:15:30;6.78;;;3.90;;
54959;SDS011;40860;51.710;8.736;2023-03-16T05:19:48;4.82;;;3.40;;
54959;SDS011;40860;51.710;8.736;2023-03-16T05:23:52;4.22;;;3.38;;
54959;SDS011;40860;51.710;8.736;2023-03-16T05:27:56;6.60;;;3.53;;
54959;SDS011;40860;51.710;8.736;2023-03-16T05:32:09;4.43;;;3.13;;
54959;SDS011;40860;51.710;8.736;2023-03-16T05:36:13;5.93;;;3.20;;
54959;SDS011;40860;51.710;8.736;2023-03-16T05:40:20;6.78;;;3.58;;
54959;SDS011;40860;51.710;8.736;2023-03-16T05:44:32;5.10;;;3.28;;
54959;SDS011;40860;51.710;8.736;2023-03-16T05:48:48;5.97;;;3.20;;
54959;SDS011;40860;51.710;8.736;2023-03-16T05:52:53;7.38;;;3.30;;
54959;SDS011;40860;51.710;8.736;2023-03-16T05:56:57;5.68;;;3.33;;
54959;SDS011;40860;51.710;8.736;2023-03-16T06:01:01;6.47;;;3.70;;
54959;SDS011;40860;51.710;8.736;2023-03-16T06:05:07;6.70;;;3.58;;
54959;SDS011;40860;51.710;8.736;2023-03-16T06:09:14;5.65;;;3.45;;
54959;SDS011;40860;51.710;8.736;2023-03-16T06:13:16;4.50;;;3.58;;
54959;SDS011;40860;51.710;8.736;2023-03-16T06:17:19;5.10;;;3.70;;
54959;SDS011;40860;51.710;8.736;2023-03-16T06:21:24;7.00;;;3.97;;
54959;SDS011;40860;51.710;8.736;2023-03-16T06:25:29;7.20;;;3.42;;
54959;SDS011;40860;51.710;8.736;2023-03-16T06:29:32;3.95;;;3.33;;
54959;SDS011;40860;51.710;8.736;2023-03-16T06:33:36;5.45;;;3.40;;
54959;SDS011;40860;51.710;8.736;2023-03-16T06:37:40;8.75;;;3.45;;
54959;SDS011;40860;51.710;8.736;2023-03-16T06:41:58;6.53;;;3.28;;
54959;SDS011;40860;51.710;8.736;2023-03-16T06:46:01;5.50;;;2.97;;
54959;SDS011;40860;51.710;8.736;2023-03-16T06:50:05;5.88;;;3.22;;
54959;SDS011;40860;51.710;8.736;2023-03-16T06:54:10;4.68;;;2.72;;
54959;SDS011;40860;51.710;8.736;2023-03-16T06:58:14;5.70;;;3.33;;
54959;SDS011;40860;51.710;8.736;2023-03-16T07:02:21;7.28;;;3.40;;
54959;SDS011;40860;51.710;8.736;2023-03-16T07:06:38;6.45;;;2.75;;
54959;SDS011;40860;51.710;8.736;2023-03-16T07:10:45;5.85;;;3.10;;
54959;SDS011;40860;51.710;8.736;2023-03-16T07:14:48;5.75;;;3.08;;
54959;SDS011;40860;51.710;8.736;2023-03-16T07:18:58;5.32;;;2.75;;
54959;SDS011;40860;51.710;8.736;2023-03-16T07:23:02;8.23;;;3.20;;
54959;SDS011;40860;51.710;8.736;2023-03-16T07:27:07;5.43;;;2.95;;
54959;SDS011;40860;51.710;8.736;2023-03-16T07:31:13;5.50;;;2.83;;
54959;SDS011;40860;51.710;8.736;2023-03-16T07:35:16;3.35;;;2.80;;
54959;SDS011;40860;51.710;8.736;2023-03-16T07:39:20;4.13;;;3.10;;
54959;SDS011;40860;51.710;8.736;2023-03-16T07:43:26;4.25;;;3.13;;
54959;SDS011;40860;51.710;8.736;2023-03-16T07:47:30;6.47;;;3.13;;
54959;SDS011;40860;51.710;8.736;2023-03-16T07:51:39;4.63;;;3.08;;
54959;SDS011;40860;51.710;8.736;2023-03-16T07:55:43;7.03;;;3.28;;
54959;SDS011;40860;51.710;8.736;2023-03-16T07:59:47;6.90;;;3.45;;
54959;SDS011;40860;51.710;8.736;2023-03-16T08:03:51;5.63;;;3.40;;
54959;SDS011;40860;51.710;8.736;2023-03-16T08:07:54;6.50;;;3.47;;
54959;SDS011;40860;51.710;8.736;2023-03-16T08:12:00;4.93;;;3.05;;
54959;SDS011;40860;51.710;8.736;2023-03-16T08:16:08;5.22;;;3.58;;
54959;SDS011;40860;51.710;8.736;2023-03-16T08:20:16;3.50;;;3.20;;
54959;SDS011;40860;51.710;8.736;2023-03-16T08:24:20;4.75;;;3.08;;
54959;SDS011;40860;51.710;8.736;2023-03-16T08:28:24;4.63;;;3.13;;
54959;SDS011;40860;51.710;8.736;2023-03-16T08:32:30;4.20;;;3.00;;
54959;SDS011;40860;51.710;8.736;2023-03-16T08:36:33;5.13;;;3.33;;
54959;SDS011;40860;51.710;8.736;2023-03-16T08:40:38;3.85;;;3.05;;
54959;SDS011;40860;51.710;8.736;2023-03-16T08:44:43;4.82;;;3.47;;
54959;SDS011;40860;51.710;8.736;2023-03-16T08:48:47;6.63;;;3.63;;
54959;SDS011;40860;51.710;8.736;2023-03-16T08:52:50;5.95;;;3.25;;
54959;SDS011;40860;51.710;8.736;2023-03-16T08:56:53;7.47;;;3.60;;
54959;SDS011;40860;51.710;8.736;2023-03-16T09:00:56;4.97;;;3.00;;
54959;SDS011;40860;51.710;8.736;2023-03-16T09:05:01;4.90;;;2.97;;
54959;SDS011;40860;51.710;8.736;2023-03-16T09:09:05;4.80;;;3.15;;
54959;SDS011;40860;51.710;8.736;2023-03-16T09:13:09;5.57;;;3.20;;
54959;SDS011;40860;51.710;8.736;2023-03-16T09:17:12;6.47;;;3.47;;
54959;SDS011;40860;51.710;8.736;2023-03-16T09:21:17;4.43;;;3.35;;
54959;SDS011;40860;51.710;8.736;2023-03-16T09:25:20;3.42;;;2.80;;
54959;SDS011;40860;51.710;8.736;2023-03-16T09:29:23;4.13;;;3.08;;
54959;SDS011;40860;51.710;8.736;2023-03-16T09:33:26;5.10;;;3.03;;
54959;SDS011;40860;51.710;8.736;2023-03-16T09:37:31;3.47;;;2.70;;
54959;SDS011;40860;51.710;8.736;2023-03-16T09:41:46;4.25;;;3.10;;
54959;SDS011;40860;51.710;8.736;2023-03-16T09:45:55;3.55;;;3.00;;
54959;SDS011;40860;51.710;8.736;2023-03-16T09:50:05;4.18;;;3.28;;
54959;SDS011;40860;51.710;8.736;2023-03-16T09:54:18;3.45;;;2.85;;
54959;SDS011;40860;51.710;8.736;2023-03-16T09:58:27;3.13;;;2.83;;
54959;SDS011;40860;51.710;8.736;2023-03-16T10:07:01;4.05;;;3.05;;
54959;SDS011;40860;51.710;8.736;2023-03-16T10:11:22;3.78;;;2.88;;
54959;SDS011;40860;51.710;8.736;2023-03-16T10:15:28;4.55;;;3.53;;
54959;SDS011;40860;51.710;8.736;2023-03-16T10:19:35;4.53;;;3.67;;
54959;SDS011;40860;51.710;8.736;2023-03-16T10:23:42;5.43;;;3.45;;
54959;SDS011;40860;51.710;8.736;2023-03-16T10:27:48;5.53;;;3.70;;
54959;SDS011;40860;51.710;8.736;2023-03-16T10:31:52;4.10;;;3.40;;
54959;SDS011;40860;51.710;8.736;2023-03-16T10:36:01;6.70;;;3.28;;
54959;SDS011;40860;51.710;8.736;2023-03-16T10:40:11;5.22;;;3.05;;
54959;SDS011;40860;51.710;8.736;2023-03-16T10:44:20;3.72;;;3.40;;
54959;SDS011;40860;51.710;8.736;2023-03-16T10:48:24;4.00;;;3.55;;
54959;SDS011;40860;51.710;8.736;2023-03-16T10:52:31;4.30;;;3.38;;
54959;SDS011;40860;51.710;8.736;2023-03-16T10:56:36;4.38;;;3.13;;
54959;SDS011;40860;51.710;8.736;2023-03-16T11:00:41;6.43;;;3.60;;
54959;SDS011;40860;51.710;8.736;2023-03-16T11:04:45;3.80;;;3.30;;
54959;SDS011;40860;51.710;8.736;2023-03-16T11:08:49;5.70;;;3.38;;
54959;SDS011;40860;51.710;8.736;2023-03-16T11:12:54;5.20;;;3.30;;
54959;SDS011;40860;51.710;8.736;2023-03-16T11:17:05;5.68;;;3.38;;
54959;SDS011;40860;51.710;8.736;2023-03-16T11:21:13;7.10;;;3.17;;
54959;SDS011;40860;51.710;8.736;2023-03-16T11:25:20;5.40;;;3.45;;
54959;SDS011;40860;51.710;8.736;2023-03-16T11:29:31;4.18;;;2.90;;
54959;SDS011;40860;51.710;8.736;2023-03-16T11:33:46;5.07;;;3.30;;
54959;SDS011;40860;51.710;8.736;2023-03-16T11:37:54;6.57;;;3.40;;
54959;SDS011;40860;51.710;8.736;2023-03-16T11:42:13;5.88;;;3.33;;
54959;SDS011;40860;51.710;8.736;2023-03-16T11:46:26;4.95;;;2.90;;
54959;SDS011;40860;51.710;8.736;2023-03-16T11:50:35;4.97;;;3.22;;
54959;SDS011;40860;51.710;8.736;2023-03-16T11:54:50;5.13;;;3.28;;
54959;SDS011;40860;51.710;8.736;2023-03-16T11:59:12;5.00;;;2.80;;
54959;SDS011;40860;51.710;8.736;2023-03-16T12:03:34;4.10;;;2.67;;
54959;SDS011;40860;51.710;8.736;2023-03-16T12:07:54;3.25;;;2.67;;
54959;SDS011;40860;51.710;8.736;2023-03-16T12:12:09;4.97;;;2.60;;
54959;SDS011;40860;51.710;8.736;2023-03-16T12:16:22;2.90;;;2.53;;
54959;SDS011;40860;51.710;8.736;2023-03-16T12:20:48;3.67;;;2.45;;
54959;SDS011;40860;51.710;8.736;2023-03-16T12:24:56;3.65;;;2.30;;
54959;SDS011;40860;51.710;8.736;2023-03-16T12:28:59;2.83;;;2.50;;
54959;SDS011;40860;51.710;8.736;2023-03-16T12:33:10;2.35;;;2.15;;
54959;SDS011;40860;51.710;8.736;2023-03-16T12:37:26;2.95;;;1.98;;
54959;SDS011;40860;51.710;8.736;2023-03-16T12:41:38;4.85;;;2.15;;
54959;SDS011;40860;51.710;8.736;2023-03-16T12:45:53;4.07;;;2.22;;
54959;SDS011;40860;51.710;8.736;2023-03-16T12:50:05;3.47;;;2.47;;
54959;SDS011;40860;51.710;8.736;2023-03-16T12:54:19;2.63;;;2.00;;
54959;SDS011;40860;51.710;8.736;2023-03-16T12:58:24;2.53;;;2.15;;
54959;SDS011;40860;51.710;8.736;2023-03-16T13:02:29;3.72;;;2.20;;
54959;SDS011;40860;51.710;8.736;2023-03-16T13:06:34;2.35;;;2.15;;
54959;SDS011;40860;51.710;8.736;2023-03-16T13:10:37;3.80;;;2.83;;
54959;SDS011;40860;51.710;8.736;2023-03-16T13:14:43;3.08;;;2.30;;
54959;SDS011;40860;51.710;8.736;2023-03-16T13:18:46;2.92;;;2.50;;
54959;SDS011;40860;51.710;8.736;2023-03-16T13:22:49;3.42;;;2.05;;
54959;SDS011;40860;51.710;8.736;2023-03-16T13:27:14;1.77;;;1.50;;
54959;SDS011;40860;51.710;8.736;2023-03-16T13:31:25;4.57;;;3.65;;
54959;SDS011;40860;51.710;8.736;2023-03-16T13:35:35;3.67;;;1.95;;
54959;SDS011;40860;51.710;8.736;2023-03-16T13:39:39;4.40;;;2.78;;
54959;SDS011;40860;51.710;8.736;2023-03-16T13:43:42;2.42;;;2.22;;
54959;SDS011;40860;51.710;8.736;2023-03-16T13:47:47;1.92;;;1.55;;
54959;SDS011;40860;51.710;8.736;2023-03-16T13:51:50;1.70;;;1.60;;
54959;SDS011;40860;51.710;8.736;2023-03-16T13:55:53;2.30;;;2.03;;
54959;SDS011;40860;51.710;8.736;2023-03-16T14:00:02;3.53;;;2.25;;
54959;SDS011;40860;51.710;8.736;2023-03-16T14:04:11;3.08;;;1.95;;
54959;SDS011;40860;51.710;8.736;2023-03-16T14:08:16;2.03;;;1.75;;
54959;SDS011;40860;51.710;8.736;2023-03-16T14:12:20;1.77;;;1.67;;
54959;SDS011;40860;51.710;8.736;2023-03-16T14:16:24;2.17;;;1.98;;
54959;SDS011;40860;51.710;8.736;2023-03-16T14:20:29;3.40;;;1.88;;
54959;SDS011;40860;51.710;8.736;2023-03-16T14:24:39;2.15;;;1.95;;
54959;SDS011;40860;51.710;8.736;2023-03-16T14:28:52;2.40;;;2.20;;
54959;SDS011;40860;51.710;8.736;2023-03-16T14:32:58;2.60;;;1.60;;
54959;SDS011;40860;51.710;8.736;2023-03-16T14:37:07;1.85;;;1.75;;
54959;SDS011;40860;51.710;8.736;2023-03-16T14:41:16;2.75;;;2.50;;
54959;SDS011;40860;51.710;8.736;2023-03-16T14:45:25;4.15;;;3.05;;
54959;SDS011;40860;51.710;8.736;2023-03-16T14:49:32;2.85;;;2.50;;
54959;SDS011;40860;51.710;8.736;2023-03-16T14:53:38;2.38;;;1.95;;
54959;SDS011;40860;51.710;8.736;2023-03-16T14:57:42;1.88;;;1.77;;
54959;SDS011;40860;51.710;8.736;2023-03-16T15:01:46;1.77;;;1.52;;
54959;SDS011;40860;51.710;8.736;2023-03-16T15:05:50;2.58;;;1.60;;
54959;SDS011;40860;51.710;8.736;2023-03-16T15:10:05;2.15;;;1.95;;
54959;SDS011;40860;51.710;8.736;2023-03-16T15:14:10;2.30;;;1.60;;
54959;SDS011;40860;51.710;8.736;2023-03-16T15:18:35;1.70;;;1.58;;
54959;SDS011;40860;51.710;8.736;2023-03-16T15:22:39;2.17;;;1.60;;
54959;SDS011;40860;51.710;8.736;2023-03-16T15:26:44;2.63;;;1.75;;
54959;SDS011;40860;51.710;8.736;2023-03-16T15:30:47;2.75;;;2.20;;
54959;SDS011;40860;51.710;8.736;2023-03-16T15:34:52;5.00;;;1.70;;
54959;SDS011;40860;51.710;8.736;2023-03-16T15:38:54;2.25;;;2.05;;
54959;SDS011;40860;51.710;8.736;2023-03-16T15:42:59;3.35;;;1.95;;
54959;SDS011;40860;51.710;8.736;2023-03-16T15:47:02;3.75;;;2.58;;
54959;SDS011;40860;51.710;8.736;2023-03-16T15:51:07;2.10;;;1.83;;
54959;SDS011;40860;51.710;8.736;2023-03-16T15:55:17;3.53;;;2.20;;
54959;SDS011;40860;51.710;8.736;2023-03-16T15:59:24;4.85;;;1.95;;
54959;SDS011;40860;51.710;8.736;2023-03-16T16:03:31;2.67;;;2.00;;
54959;SDS011;40860;51.710;8.736;2023-03-16T16:07:35;2.90;;;2.55;;
54959;SDS011;40860;51.710;8.736;2023-03-16T16:11:38;3.03;;;2.20;;
54959;SDS011;40860;51.710;8.736;2023-03-16T16:15:42;3.58;;;2.58;;
54959;SDS011;40860;51.710;8.736;2023-03-16T16:19:47;1.83;;;1.67;;
54959;SDS011;40860;51.710;8.736;2023-03-16T16:23:50;2.67;;;2.28;;
54959;SDS011;40860;51.710;8.736;2023-03-16T16:27:53;3.78;;;2.15;;
54959;SDS011;40860;51.710;8.736;2023-03-16T16:31:58;7.93;;;2.92;;
54959;SDS011;40860;51.710;8.736;2023-03-16T16:36:02;3.08;;;2.55;;
54959;SDS011;40860;51.710;8.736;2023-03-16T16:40:08;3.65;;;2.65;;
54959;SDS011;40860;51.710;8.736;2023-03-16T16:44:15;3.08;;;2.60;;
54959;SDS011;40860;51.710;8.736;2023-03-16T16:48:25;3.88;;;2.67;;
54959;SDS011;40860;51.710;8.736;2023-03-16T16:52:32;2.70;;;2.50;;
54959;SDS011;40860;51.710;8.736;2023-03-16T16:56:34;3.05;;;2.40;;
54959;SDS011;40860;51.710;8.736;2023-03-16T17:00:38;2.97;;;2.67;;
54959;SDS011;40860;51.710;8.736;2023-03-16T17:04:45;3.53;;;2.50;;
54959;SDS011;40860;51.710;8.736;2023-03-16T17:08:50;4.05;;;2.60;;
54959;SDS011;40860;51.710;8.736;2023-03-16T17:13:01;4.45;;;3.40;;
54959;SDS011;40860;51.710;8.736;2023-03-16T17:17:08;3.40;;;2.70;;
54959;SDS011;40860;51.710;8.736;2023-03-16T17:21:18;3.85;;;2.80;;
54959;SDS011;40860;51.710;8.736;2023-03-16T17:25:24;5.43;;;2.33;;
54959;SDS011;40860;51.710;8.736;2023-03-16T17:29:31;9.45;;;3.17;;
54959;SDS011;40860;51.710;8.736;2023-03-16T17:33:34;5.63;;;2.83;;
54959;SDS011;40860;51.710;8.736;2023-03-16T17:37:38;3.40;;;2.80;;
54959;SDS011;40860;51.710;8.736;2023-03-16T17:41:43;3.40;;;3.10;;
54959;SDS011;40860;51.710;8.736;2023-03-16T17:45:50;3.85;;;3.17;;
54959;SDS011;40860;51.710;8.736;2023-03-16T17:49:55;3.83;;;3.50;;
54959;SDS011;40860;51.710;8.736;2023-03-16T17:53:59;6.53;;;4.45;;
54959;SDS011;40860;51.710;8.736;2023-03-16T17:58:02;4.30;;;3.80;;
54959;SDS011;40860;51.710;8.736;2023-03-16T18:02:09;4.07;;;3.45;;
54959;SDS011;40860;51.710;8.736;2023-03-16T18:06:33;4.70;;;3.90;;
54959;SDS011;40860;51.710;8.736;2023-03-16T18:10:37;7.78;;;4.22;;
54959;SDS011;40860;51.710;8.736;2023-03-16T18:14:40;4.80;;;3.78;;
54959;SDS011;40860;51.710;8.736;2023-03-16T18:18:44;5.35;;;4.10;;
54959;SDS011;40860;51.710;8.736;2023-03-16T18:22:48;4.43;;;3.97;;
54959;SDS011;40860;51.710;8.736;2023-03-16T18:26:53;4.30;;;3.90;;
54959;SDS011;40860;51.710;8.736;2023-03-16T18:30:57;4.53;;;4.13;;
54959;SDS011;40860;51.710;8.736;2023-03-16T18:35:01;4.72;;;4.25;;
54959;SDS011;40860;51.710;8.736;2023-03-16T18:39:09;5.55;;;4.45;;
54959;SDS011;40860;51.710;8.736;2023-03-16T18:43:21;6.43;;;4.32;;
54959;SDS011;40860;51.710;8.736;2023-03-16T18:47:27;5.30;;;4.50;;
54959;SDS011;40860;51.710;8.736;2023-03-16T18:51:31;7.78;;;4.18;;
54959;SDS011;40860;51.710;8.736;2023-03-16T18:55:34;7.38;;;4.65;;
54959;SDS011;40860;51.710;8.736;2023-03-16T18:59:46;5.40;;;4.13;;
54959;SDS011;40860;51.710;8.736;2023-03-16T19:03:51;5.20;;;4.32;;
54959;SDS011;40860;51.710;8.736;2023-03-16T19:07:55;6.03;;;4.22;;
54959;SDS011;40860;51.710;8.736;2023-03-16T19:12:00;4.72;;;4.10;;
54959;SDS011;40860;51.710;8.736;2023-03-16T19:16:08;9.25;;;4.45;;
54959;SDS011;40860;51.710;8.736;2023-03-16T19:20:18;5.20;;;4.20;;
54959;SDS011;40860;51.710;8.736;2023-03-16T19:24:26;5.47;;;4.45;;
54959;SDS011;40860;51.710;8.736;2023-03-16T19:28:33;6.22;;;4.95;;
54959;SDS011;40860;51.710;8.736;2023-03-16T19:32:38;5.95;;;4.53;;
54959;SDS011;40860;51.710;8.736;2023-03-16T19:36:41;5.57;;;4.60;;
54959;SDS011;40860;51.710;8.736;2023-03-16T19:40:44;5.43;;;4.68;;
54959;SDS011;40860;51.710;8.736;2023-03-16T19:44:49;5.18;;;4.05;;
54959;SDS011;40860;51.710;8.736;2023-03-16T19:48:53;6.07;;;4.38;;
54959;SDS011;40860;51.710;8.736;2023-03-16T19:52:57;6.40;;;4.35;;
54959;SDS011;40860;51.710;8.736;2023-03-16T19:57:02;6.05;;;4.50;;
54959;SDS011;40860;51.710;8.736;2023-03-16T20:01:12;5.50;;;4.00;;
54959;SDS011;40860;51.710;8.736;2023-03-16T20:05:20;4.55;;;4.03;;
54959;SDS011;40860;51.710;8.736;2023-03-16T20:09:25;5.53;;;4.45;;
54959;SDS011;40860;51.710;8.736;2023-03-16T20:13:28;8.32;;;4.60;;
54959;SDS011;40860;51.710;8.736;2023-03-16T20:17:35;4.97;;;4.40;;
54959;SDS011;40860;51.710;8.736;2023-03-16T20:21:40;5.80;;;4.30;;
54959;SDS011;40860;51.710;8.736;2023-03-16T20:25:43;5.40;;;3.80;;
54959;SDS011;40860;51.710;8.736;2023-03-16T20:29:47;4.78;;;3.83;;
54959;SDS011;40860;51.710;8.736;2023-03-16T20:33:52;6.25;;;4.03;;
54959;SDS011;40860;51.710;8.736;2023-03-16T20:37:57;4.68;;;3.80;;
54959;SDS011;40860;51.710;8.736;2023-03-16T20:42:00;4.70;;;4.07;;
54959;SDS011;40860;51.710;8.736;2023-03-16T20:46:02;4.68;;;3.83;;
54959;SDS011;40860;51.710;8.736;2023-03-16T20:50:08;5.10;;;4.20;;
54959;SDS011;40860;51.710;8.736;2023-03-16T20:54:24;5.20;;;4.22;;
54959;SDS011;40860;51.710;8.736;2023-03-16T20:58:27;5.90;;;4.10;;
54959;SDS011;40860;51.710;8.736;2023-03-16T21:02:33;5.00;;;4.18;;
54959;SDS011;40860;51.710;8.736;2023-03-16T21:06:36;4.78;;;4.00;;
54959;SDS011;40860;51.710;8.736;2023-03-16T21:10:40;4.00;;;3.67;;
54959;SDS011;40860;51.710;8.736;2023-03-16T21:14:44;6.15;;;4.30;;
54959;SDS011;40860;51.710;8.736;2023-03-16T21:18:47;5.35;;;3.95;;
54959;SDS011;40860;51.710;8.736;2023-03-16T21:22:50;4.80;;;3.72;;
54959;SDS011;40860;51.710;8.736;2023-03-16T21:26:55;6.28;;;3.78;;
54959;SDS011;40860;51.710;8.736;2023-03-16T21:30:58;5.97;;;4.00;;
54959;SDS011;40860;51.710;8.736;2023-03-16T21:35:03;4.90;;;3.42;;
54959;SDS011;40860;51.710;8.736;2023-03-16T21:39:08;4.43;;;3.70;;
54959;SDS011;40860;51.710;8.736;2023-03-16T21:43:22;6.32;;;4.07;;
54959;SDS011;40860;51.710;8.736;2023-03-16T21:47:26;4.35;;;3.45;;
54959;SDS011;40860;51.710;8.736;2023-03-16T21:51:30;5.15;;;3.78;;
54959;SDS011;40860;51.710;8.736;2023-03-16T21:55:33;4.35;;;3.78;;
54959;SDS011;40860;51.710;8.736;2023-03-16T21:59:38;4.05;;;3.65;;
54959;SDS011;40860;51.710;8.736;2023-03-16T22:03:41;5.97;;;4.13;;
54959;SDS011;40860;51.710;8.736;2023-03-16T22:07:51;6.07;;;4.00;;
54959;SDS011;40860;51.710;8.736;2023-03-16T22:11:57;4.43;;;3.95;;
54959;SDS011;40860;51.710;8.736;2023-03-16T22:16:04;5.55;;;4.07;;
54959;SDS011;40860;51.710;8.736;2023-03-16T22:20:15;6.00;;;3.70;;
54959;SDS011;40860;51.710;8.736;2023-03-16T22:24:21;8.32;;;4.45;;
54959;SDS011;40860;51.710;8.736;2023-03-16T22:28:25;5.50;;;4.00;;
54959;SDS011;40860;51.710;8.736;2023-03-16T22:32:30;5.78;;;4.00;;
54959;SDS011;40860;51.710;8.736;2023-03-16T22:36:33;4.47;;;3.92;;
54959;SDS011;40860;51.710;8.736;2023-03-16T22:40:36;6.28;;;4.18;;
54959;SDS011;40860;51.710;8.736;2023-03-16T22:44:40;6.65;;;4.20;;
54959;SDS011;40860;51.710;8.736;2023-03-16T22:48:44;5.60;;;4.45;;
54959;SDS011;40860;51.710;8.736;2023-03-16T22:52:48;5.88;;;4.45;;
54959;SDS011;40860;51.710;8.736;2023-03-16T22:56:53;6.75;;;4.55;;
54959;SDS011;40860;51.710;8.736;2023-03-16T23:00:56;6.22;;;4.15;;
54959;SDS011;40860;51.710;8.736;2023-03-16T23:05:10;5.07;;;4.57;;
54959;SDS011;40860;51.710;8.736;2023-03-16T23:09:20;6.15;;;4.70;;
54959;SDS011;40860;51.710;8.736;2023-03-16T23:13:23;4.95;;;4.22;;
54959;SDS011;40860;51.710;8.736;2023-03-16T23:17:27;5.40;;;4.10;;
54959;SDS011;40860;51.710;8.736;2023-03-16T23:21:31;5.65;;;4.40;;
54959;SDS011;40860;51.710;8.736;2023-03-16T23:25:34;5.80;;;4.10;;
54959;SDS011;40860;51.710;8.736;2023-03-16T23:29:41;5.57;;;4.22;;
54959;SDS011;40860;51.710;8.736;2023-03-16T23:33:44;6.05;;;4.30;;
54959;SDS011;40860;51.710;8.736;2023-03-16T23:41:57;9.40;;;4.75;;
54959;SDS011;40860;51.710;8.736;2023-03-16T23:45:59;6.15;;;4.40;;
54959;SDS011;40860;51.710;8.736;2023-03-16T23:50:04;6.70;;;4.22;;
54959;SDS011;40860;51.710;8.736;2023-03-16T23:54:09;4.82;;;4.32;;
54959;SDS011;40860;51.710;8.736;2023-03-16T23:58:18;6.60;;;4.60;;
